Time;durP1;ratioP1;P1;durP2;ratioP2;P2;SDS_P1;SDS_P2;PMS_P1;PMS_P2;Temp;Humidity;BMP_temperature;BMP_pressure;BME280_temperature;BME280_humidity;BME280_pressure;Samples;Min_cycle;Max_cycle;Signal;HPM_P1;HPM_P2
2023/09/17 00:01:25;;;;;;;37.13;31.00;;;12.70;78.60;;;;;;5023431;28;20049;-64
2023/09/17 00:03:51;;;;;;;44.67;34.10;;;12.80;78.70;;;;;;5035597;28;20044;-64
2023/09/17 00:06:17;;;;;;;34.85;30.75;;;12.70;78.70;;;;;;5035391;28;20072;-64
2023/09/17 00:08:43;;;;;;;38.67;32.60;;;12.80;78.80;;;;;;5038105;28;20041;-65
2023/09/17 00:11:08;;;;;;;37.08;33.17;;;12.80;78.90;;;;;;5045050;28;20049;-65
2023/09/17 00:13:35;;;;;;;35.95;31.73;;;12.80;78.90;;;;;;5041735;28;20052;-64
2023/09/17 00:16:01;;;;;;;46.58;37.97;;;12.80;78.90;;;;;;5052997;28;20052;-64
2023/09/17 00:18:27;;;;;;;36.22;32.33;;;12.80;79.10;;;;;;5033015;28;20093;-64
2023/09/17 00:20:53;;;;;;;37.00;32.22;;;12.80;79.20;;;;;;5049628;28;20045;-64
2023/09/17 00:23:19;;;;;;;37.50;31.23;;;12.80;79.20;;;;;;5056902;28;20490;-65
2023/09/17 00:25:44;;;;;;;35.42;29.95;;;12.80;79.20;;;;;;5048100;28;20040;-66
2023/09/17 00:28:10;;;;;;;38.65;33.08;;;12.80;79.20;;;;;;5024975;28;20099;-64
2023/09/17 00:30:36;;;;;;;36.75;31.95;;;12.80;79.20;;;;;;5030981;28;20120;-65
2023/09/17 00:33:02;;;;;;;37.05;31.65;;;12.70;79.20;;;;;;5047833;28;20037;-64
2023/09/17 00:35:28;;;;;;;38.67;33.15;;;12.80;79.20;;;;;;5052158;28;20357;-64
2023/09/17 00:37:53;;;;;;;41.90;35.40;;;12.70;79.20;;;;;;5030242;28;20045;-65
2023/09/17 00:40:27;;;;;;;43.78;37.13;;;12.70;79.30;;;;;;5043996;28;20120;-65
2023/09/17 00:42:53;;;;;;;41.58;35.53;;;12.80;79.40;;;;;;5052034;28;20494;-65
2023/09/17 00:45:19;;;;;;;43.42;37.08;;;12.70;79.60;;;;;;5035497;28;20049;-65
2023/09/17 00:47:44;;;;;;;39.70;35.28;;;12.70;79.60;;;;;;5036375;28;20122;-64
2023/09/17 00:50:10;;;;;;;33.95;30.25;;;12.70;79.60;;;;;;5047970;28;20444;-65
2023/09/17 00:52:36;;;;;;;35.13;30.23;;;12.70;79.70;;;;;;5035222;28;20519;-64
2023/09/17 00:55:03;;;;;;;35.03;31.20;;;12.70;79.70;;;;;;5027778;28;20053;-64
2023/09/17 00:57:30;;;;;;;39.67;31.98;;;12.70;79.60;;;;;;5030485;28;20126;-64
2023/09/17 00:59:57;;;;;;;36.65;32.65;;;12.70;79.70;;;;;;5047150;28;20041;-64
2023/09/17 01:02:25;;;;;;;38.65;32.88;;;12.70;79.70;;;;;;5034098;28;20045;-65
2023/09/17 01:04:52;;;;;;;38.47;32.92;;;12.70;79.80;;;;;;5034161;28;20047;-65
2023/09/17 01:07:19;;;;;;;38.15;33.97;;;12.70;79.90;;;;;;5042168;28;20044;-64
2023/09/17 01:09:46;;;;;;;41.33;36.25;;;12.70;79.90;;;;;;5047664;28;20044;-65
2023/09/17 01:12:12;;;;;;;39.65;35.28;;;12.70;79.90;;;;;;5044729;28;20094;-64
2023/09/17 01:14:38;;;;;;;44.17;34.50;;;12.70;79.90;;;;;;5047996;28;20041;-66
2023/09/17 01:17:10;;;;;;;41.85;33.97;;;12.60;80.00;;;;;;5037831;28;20127;-64
2023/09/17 01:19:37;;;;;;;38.70;34.50;;;12.70;80.00;;;;;;5051728;28;20040;-64
2023/09/17 01:22:17;;;;;;;36.53;32.63;;;12.70;80.00;;;;;;5031161;28;20479;-65
2023/09/17 01:24:59;;;;;;;39.05;31.65;;;12.70;80.20;;;;;;5057839;28;20387;-66
2023/09/17 01:27:26;;;;;;;36.95;32.80;;;12.70;80.10;;;;;;5039717;28;20044;-65
2023/09/17 01:29:53;;;;;;;36.38;32.30;;;12.70;80.20;;;;;;5051740;28;20059;-65
2023/09/17 01:32:19;;;;;;;40.88;33.97;;;12.70;80.10;;;;;;5050920;28;20041;-65
2023/09/17 01:34:49;;;;;;;37.80;33.67;;;12.70;80.10;;;;;;5048218;28;20511;-64
2023/09/17 01:37:18;;;;;;;45.00;37.63;;;12.70;80.10;;;;;;5040502;28;20037;-63
2023/09/17 01:39:50;;;;;;;32.78;29.20;;;12.70;80.50;;;;;;5051959;28;20047;-66
2023/09/17 01:42:19;;;;;;;23.52;21.13;;;12.70;80.50;;;;;;5044128;28;20076;-65
2023/09/17 01:44:46;;;;;;;16.02;14.02;;;12.60;80.30;;;;;;5031843;28;20041;-66
2023/09/17 01:47:12;;;;;;;29.08;24.67;;;12.50;79.90;;;;;;5010177;28;20041;-65
2023/09/17 01:49:39;;;;;;;32.38;27.80;;;12.50;80.00;;;;;;5044117;28;20077;-65
2023/09/17 01:52:05;;;;;;;35.75;31.88;;;12.40;80.20;;;;;;5030666;28;20046;-64
2023/09/17 01:54:31;;;;;;;35.90;31.95;;;12.40;80.30;;;;;;5031209;28;20041;-65
2023/09/17 01:56:56;;;;;;;23.55;21.05;;;12.40;80.50;;;;;;5029047;28;20036;-64
2023/09/17 01:59:22;;;;;;;25.27;22.58;;;12.50;80.60;;;;;;5049972;28;20052;-65
2023/09/17 02:01:48;;;;;;;21.35;19.15;;;12.50;80.60;;;;;;5050282;28;20072;-64
2023/09/17 02:04:13;;;;;;;23.33;21.02;;;12.40;80.70;;;;;;5035993;28;20057;-65
2023/09/17 02:06:39;;;;;;;24.40;21.25;;;12.40;80.80;;;;;;5018832;28;20456;-65
2023/09/17 02:09:05;;;;;;;21.30;19.20;;;12.30;80.60;;;;;;5044962;28;20072;-65
2023/09/17 02:11:31;;;;;;;22.58;20.27;;;12.30;80.50;;;;;;5052616;28;20048;-63
2023/09/17 02:13:57;;;;;;;25.10;22.48;;;12.30;80.50;;;;;;5054624;28;20086;-65
2023/09/17 02:16:23;;;;;;;26.30;22.60;;;12.30;80.60;;;;;;5039834;28;20041;-65
2023/09/17 02:18:51;;;;;;;28.92;25.77;;;12.30;80.70;;;;;;5015466;28;20045;-65
2023/09/17 02:21:16;;;;;;;26.80;23.63;;;12.30;80.70;;;;;;5044999;28;20080;-65
2023/09/17 02:23:44;;;;;;;34.42;29.08;;;12.40;80.80;;;;;;5048353;28;20084;-65
2023/09/17 02:26:10;;;;;;;41.40;33.45;;;12.50;81.00;;;;;;5039385;28;20553;-65
2023/09/17 02:28:35;;;;;;;36.75;31.20;;;12.50;81.10;;;;;;5043305;28;20053;-65
2023/09/17 02:31:02;;;;;;;38.08;33.10;;;12.50;81.20;;;;;;5049036;28;20145;-64
2023/09/17 02:33:31;;;;;;;38.53;33.40;;;12.60;81.20;;;;;;5050976;28;20107;-64
2023/09/17 02:35:56;;;;;;;45.28;36.45;;;12.70;81.30;;;;;;5048807;28;20037;-65
2023/09/17 02:38:22;;;;;;;49.67;39.00;;;12.80;81.40;;;;;;5036701;28;20068;-65
2023/09/17 02:40:48;;;;;;;48.72;40.83;;;12.90;81.60;;;;;;5047060;28;20087;-65
2023/09/17 02:43:14;;;;;;;50.30;40.53;;;12.90;81.70;;;;;;5047350;28;20045;-65
2023/09/17 02:45:39;;;;;;;50.30;40.50;;;13.00;81.80;;;;;;5047367;28;20514;-65
2023/09/17 02:48:06;;;;;;;49.75;40.20;;;13.10;81.80;;;;;;5035964;28;20098;-63
2023/09/17 02:50:31;;;;;;;46.03;38.22;;;13.10;81.90;;;;;;5045163;28;20045;-63
2023/09/17 02:52:58;;;;;;;51.30;42.03;;;13.10;82.30;;;;;;5044812;28;20577;-65
2023/09/17 02:55:23;;;;;;;52.13;41.92;;;13.10;82.20;;;;;;5047513;28;20372;-65
2023/09/17 02:57:49;;;;;;;57.53;43.95;;;13.10;82.30;;;;;;5036546;28;20055;-63
2023/09/17 03:00:17;;;;;;;43.45;37.28;;;13.20;82.50;;;;;;5046398;28;20123;-65
2023/09/17 03:02:47;;;;;;;44.30;34.95;;;13.30;82.30;;;;;;5046989;28;20041;-65
2023/09/17 03:05:17;;;;;;;41.08;35.08;;;13.20;82.20;;;;;;5044985;28;20048;-64
2023/09/17 03:07:43;;;;;;;43.08;35.28;;;13.20;82.10;;;;;;5033663;28;20045;-65
2023/09/17 03:10:11;;;;;;;47.53;39.42;;;13.10;82.10;;;;;;5047124;28;20033;-64
2023/09/17 03:12:38;;;;;;;48.65;40.25;;;13.10;82.30;;;;;;5041738;28;20498;-64
2023/09/17 03:15:07;;;;;;;48.60;41.45;;;13.20;82.40;;;;;;5048134;28;20091;-64
2023/09/17 03:17:37;;;;;;;47.20;40.15;;;13.30;82.50;;;;;;5035503;28;20167;-63
2023/09/17 03:20:13;;;;;;;60.60;47.15;;;13.30;82.60;;;;;;5047005;28;20048;-65
2023/09/17 03:22:40;;;;;;;71.00;49.95;;;13.30;82.60;;;;;;5046149;28;20049;-63
2023/09/17 03:25:06;;;;;;;75.03;53.13;;;13.50;82.80;;;;;;5047535;28;20076;-64
2023/09/17 03:27:33;;;;;;;72.72;52.08;;;13.50;82.90;;;;;;5033183;28;20542;-64
2023/09/17 03:30:03;;;;;;;75.68;55.47;;;13.60;83.10;;;;;;5042331;28;20041;-64
2023/09/17 03:32:29;;;;;;;75.13;56.40;;;13.60;83.10;;;;;;5042700;28;20056;-64
2023/09/17 03:34:55;;;;;;;80.70;57.13;;;13.70;83.30;;;;;;5044914;28;20049;-65
2023/09/17 03:37:21;;;;;;;77.93;59.42;;;13.90;83.50;;;;;;5036650;28;20044;-65
2023/09/17 03:40:06;;;;;;;79.65;58.13;;;13.90;83.50;;;;;;5045765;28;20598;-64
2023/09/17 03:42:31;;;;;;;83.20;60.70;;;14.00;83.50;;;;;;5042733;28;20491;-64
2023/09/17 03:44:57;;;;;;;75.03;58.75;;;14.10;83.60;;;;;;5043632;28;20059;-64
2023/09/17 03:47:23;;;;;;;81.07;61.30;;;14.10;83.60;;;;;;5034283;28;20121;-64
2023/09/17 03:49:48;;;;;;;78.88;60.92;;;14.20;83.60;;;;;;5045660;28;20235;-65
2023/09/17 03:52:14;;;;;;;80.45;59.53;;;14.20;83.50;;;;;;5043209;28;20365;-64
2023/09/17 03:54:39;;;;;;;79.50;60.03;;;14.20;83.60;;;;;;5043403;28;20151;-63
2023/09/17 03:57:05;;;;;;;75.07;59.33;;;14.30;83.70;;;;;;5036011;28;20052;-64
2023/09/17 03:59:31;;;;;;;71.63;56.97;;;14.30;83.60;;;;;;5046269;28;20080;-64
2023/09/17 04:01:56;;;;;;;73.10;57.28;;;14.30;83.60;;;;;;5047462;28;20095;-64
2023/09/17 04:04:22;;;;;;;65.47;53.25;;;14.30;83.70;;;;;;5028453;28;20440;-65
2023/09/17 04:06:48;;;;;;;77.80;59.28;;;14.40;83.70;;;;;;5035587;28;20131;-64
2023/09/17 04:09:13;;;;;;;71.45;56.83;;;14.40;83.90;;;;;;5046720;28;20072;-63
2023/09/17 04:11:39;;;;;;;67.40;54.92;;;14.40;83.90;;;;;;5041715;28;20088;-64
2023/09/17 04:14:07;;;;;;;65.43;51.33;;;14.40;84.00;;;;;;5042325;28;20136;-64
2023/09/17 04:16:33;;;;;;;71.10;53.33;;;14.40;83.90;;;;;;5015668;28;20055;-64
2023/09/17 04:18:58;;;;;;;62.35;50.35;;;14.40;83.90;;;;;;5042839;28;20053;-65
2023/09/17 04:21:24;;;;;;;60.55;48.25;;;14.40;83.80;;;;;;5043398;28;20049;-65
2023/09/17 04:23:49;;;;;;;59.15;48.65;;;14.30;83.70;;;;;;5043778;28;20057;-64
2023/09/17 04:26:16;;;;;;;61.35;49.65;;;14.30;83.70;;;;;;5038155;28;20045;-65
2023/09/17 04:28:42;;;;;;;62.30;49.45;;;14.30;83.70;;;;;;5027831;28;20040;-64
2023/09/17 04:31:08;;;;;;;59.33;46.15;;;14.30;83.70;;;;;;5046100;28;20095;-65
2023/09/17 04:33:33;;;;;;;60.55;47.55;;;14.40;83.80;;;;;;5045840;28;20422;-64
2023/09/17 04:35:59;;;;;;;53.67;46.60;;;14.40;83.70;;;;;;5046356;28;20036;-64
2023/09/17 04:38:25;;;;;;;51.25;44.40;;;14.30;83.70;;;;;;5035438;28;20406;-66
2023/09/17 04:40:51;;;;;;;55.63;44.92;;;14.30;83.70;;;;;;5046429;28;20132;-65
2023/09/17 04:43:19;;;;;;;51.92;43.22;;;14.30;83.70;;;;;;5043392;28;20041;-65
2023/09/17 04:45:45;;;;;;;51.15;43.50;;;14.30;83.70;;;;;;5045712;28;20072;-64
2023/09/17 04:48:11;;;;;;;56.38;45.80;;;14.30;83.70;;;;;;5034642;28;20055;-64
2023/09/17 04:50:37;;;;;;;50.75;43.67;;;14.30;83.60;;;;;;5046720;28;20045;-65
2023/09/17 04:53:03;;;;;;;51.42;43.05;;;14.30;83.60;;;;;;5049488;28;20044;-64
2023/09/17 04:55:29;;;;;;;50.25;43.13;;;14.20;83.50;;;;;;5050658;28;20527;-64
2023/09/17 04:57:55;;;;;;;51.05;42.28;;;14.20;83.60;;;;;;5021261;28;20069;-65
2023/09/17 05:00:20;;;;;;;50.15;44.25;;;14.20;83.60;;;;;;5049200;28;20391;-65
2023/09/17 05:02:48;;;;;;;58.72;45.42;;;14.20;83.50;;;;;;5049170;28;20049;-65
2023/09/17 05:05:13;;;;;;;53.53;45.00;;;14.20;83.70;;;;;;5049702;28;20307;-65
2023/09/17 05:07:41;;;;;;;56.05;47.30;;;14.20;83.70;;;;;;5036153;28;20124;-64
2023/09/17 05:10:08;;;;;;;55.15;46.13;;;14.20;83.70;;;;;;5047685;28;20116;-66
2023/09/17 05:12:33;;;;;;;49.92;43.78;;;14.30;83.70;;;;;;5046642;28;20075;-65
2023/09/17 05:15:00;;;;;;;58.60;46.65;;;14.30;83.60;;;;;;5047551;28;20386;-65
2023/09/17 05:17:26;;;;;;;54.53;45.35;;;14.30;83.70;;;;;;5038460;28;20941;-65
2023/09/17 05:19:51;;;;;;;60.42;47.70;;;14.30;83.70;;;;;;5048836;28;20071;-64
2023/09/17 05:22:17;;;;;;;56.08;46.72;;;14.30;83.80;;;;;;5046858;28;20067;-65
2023/09/17 05:24:43;;;;;;;59.70;47.08;;;14.30;83.70;;;;;;5049980;28;20475;-65
2023/09/17 05:27:09;;;;;;;58.80;47.65;;;14.40;83.70;;;;;;5034709;28;20450;-65
2023/09/17 05:29:34;;;;;;;59.83;46.58;;;14.40;83.70;;;;;;5046116;28;20033;-64
2023/09/17 05:32:00;;;;;;;55.85;44.72;;;14.40;83.80;;;;;;5047280;28;20045;-63
2023/09/17 05:34:26;;;;;;;52.13;43.58;;;14.40;83.80;;;;;;5045791;28;20082;-64
2023/09/17 05:36:51;;;;;;;56.33;45.83;;;14.50;84.00;;;;;;5036248;28;20562;-64
2023/09/17 05:39:17;;;;;;;56.20;46.33;;;14.50;84.00;;;;;;5049856;28;20482;-65
2023/09/17 05:41:42;;;;;;;53.97;44.15;;;14.60;84.00;;;;;;5048966;28;20482;-64
2023/09/17 05:44:08;;;;;;;52.97;45.13;;;14.60;84.00;;;;;;5049106;28;20478;-65
2023/09/17 05:46:34;;;;;;;53.65;45.17;;;14.60;83.90;;;;;;5033230;28;20131;-64
2023/09/17 05:48:59;;;;;;;53.67;45.75;;;14.70;83.80;;;;;;5046569;28;20120;-64
2023/09/17 05:51:25;;;;;;;53.13;45.47;;;14.70;83.70;;;;;;5048172;28;20056;-64
2023/09/17 05:53:51;;;;;;;53.42;45.42;;;14.70;83.70;;;;;;5027343;28;20167;-65
2023/09/17 05:56:17;;;;;;;51.47;45.50;;;14.70;83.70;;;;;;5038169;28;20057;-64
2023/09/17 05:58:43;;;;;;;56.38;46.35;;;14.70;83.70;;;;;;5048655;28;20139;-64
2023/09/17 06:01:09;;;;;;;52.42;45.97;;;14.70;83.70;;;;;;5046552;28;20041;-65
2023/09/17 06:03:35;;;;;;;57.22;45.78;;;14.70;83.70;;;;;;5046182;28;20395;-64
2023/09/17 06:06:02;;;;;;;51.92;45.38;;;14.80;83.60;;;;;;5049449;28;20041;-63
2023/09/17 06:08:29;;;;;;;54.28;45.45;;;14.80;83.70;;;;;;5042099;28;20040;-64
2023/09/17 06:10:55;;;;;;;56.30;47.08;;;14.80;83.70;;;;;;5047905;28;20048;-65
2023/09/17 06:13:21;;;;;;;55.35;47.50;;;14.80;83.60;;;;;;5048649;28;20114;-64
2023/09/17 06:15:47;;;;;;;55.50;45.65;;;14.90;83.60;;;;;;5046270;28;20060;-65
2023/09/17 06:18:12;;;;;;;54.15;47.78;;;14.90;83.60;;;;;;5035730;28;20057;-64
2023/09/17 06:20:39;;;;;;;57.55;46.65;;;14.90;83.50;;;;;;5047479;28;20487;-65
2023/09/17 06:23:05;;;;;;;63.38;49.42;;;15.00;83.60;;;;;;5048211;28;20068;-63
2023/09/17 06:25:31;;;;;;;56.70;47.60;;;15.00;83.60;;;;;;5030034;28;20138;-64
2023/09/17 06:27:56;;;;;;;56.47;47.65;;;15.00;83.50;;;;;;5036709;28;20052;-65
2023/09/17 06:30:22;;;;;;;58.25;50.38;;;15.00;83.50;;;;;;5047538;28;20592;-64
2023/09/17 06:32:48;;;;;;;58.55;50.75;;;15.10;83.50;;;;;;5046577;28;20376;-65
2023/09/17 06:35:14;;;;;;;59.08;49.70;;;15.20;83.50;;;;;;5047573;28;20152;-65
2023/09/17 06:37:39;;;;;;;58.55;49.63;;;15.20;83.60;;;;;;5037370;28;20052;-65
2023/09/17 06:40:07;;;;;;;62.25;51.25;;;15.30;83.60;;;;;;5045595;28;20041;-64
2023/09/17 06:42:33;;;;;;;58.67;50.30;;;15.30;83.60;;;;;;5046033;28;20064;-64
2023/09/17 06:44:59;;;;;;;58.13;50.38;;;15.30;83.60;;;;;;5030914;28;20044;-63
2023/09/17 06:47:25;;;;;;;59.78;49.38;;;15.40;83.70;;;;;;5036184;28;20040;-64
2023/09/17 06:49:50;;;;;;;61.30;49.17;;;15.50;83.70;;;;;;5046888;28;20045;-65
2023/09/17 06:52:16;;;;;;;57.03;47.35;;;15.50;83.70;;;;;;5044675;28;20037;-65
2023/09/17 06:54:43;;;;;;;54.05;47.20;;;15.60;83.70;;;;;;5045487;28;20239;-65
2023/09/17 06:57:09;;;;;;;59.90;49.75;;;15.60;83.70;;;;;;5036152;28;20090;-64
2023/09/17 06:59:36;;;;;;;61.35;49.63;;;15.70;83.80;;;;;;5045959;28;20060;-63
2023/09/17 07:02:01;;;;;;;54.30;47.40;;;15.80;83.80;;;;;;5045087;28;20049;-64
2023/09/17 07:04:27;;;;;;;58.03;47.75;;;15.80;83.90;;;;;;5046363;28;20053;-65
2023/09/17 07:06:54;;;;;;;54.70;47.95;;;15.90;84.00;;;;;;5033916;28;20364;-65
2023/09/17 07:09:20;;;;;;;55.58;48.38;;;15.90;84.00;;;;;;5044649;28;20041;-63
2023/09/17 07:11:45;;;;;;;56.78;48.65;;;16.00;83.90;;;;;;5047445;28;20041;-65
2023/09/17 07:14:11;;;;;;;53.75;46.97;;;16.00;84.00;;;;;;5045945;28;20051;-65
2023/09/17 07:16:39;;;;;;;54.38;46.67;;;16.10;83.90;;;;;;5031661;28;20488;-65
2023/09/17 07:19:05;;;;;;;55.05;47.15;;;16.10;83.90;;;;;;5042388;28;20388;-65
2023/09/17 07:21:34;;;;;;;51.42;44.85;;;16.20;83.90;;;;;;5045286;28;20150;-65
2023/09/17 07:23:59;;;;;;;52.17;44.28;;;16.30;84.00;;;;;;5041109;28;20479;-64
2023/09/17 07:26:25;;;;;;;49.33;44.00;;;16.40;84.00;;;;;;5036283;28;20429;-65
2023/09/17 07:28:51;;;;;;;52.25;43.72;;;16.40;83.80;;;;;;5046855;28;20068;-65
2023/09/17 07:31:17;;;;;;;49.65;42.90;;;16.50;83.70;;;;;;5047335;28;20431;-65
2023/09/17 07:33:44;;;;;;;53.05;46.58;;;16.50;83.70;;;;;;5046887;28;20045;-66
2023/09/17 07:36:11;;;;;;;52.22;44.33;;;16.60;83.60;;;;;;5037126;28;20045;-65
2023/09/17 07:38:37;;;;;;;49.15;43.72;;;16.70;83.60;;;;;;5041429;28;20068;-65
2023/09/17 07:41:02;;;;;;;49.78;44.38;;;16.70;83.60;;;;;;5045907;28;20063;-65
2023/09/17 07:43:28;;;;;;;49.10;43.15;;;16.70;83.40;;;;;;5044033;28;20044;-64
2023/09/17 07:45:54;;;;;;;50.50;42.53;;;16.80;83.40;;;;;;5044101;28;20517;-65
2023/09/17 07:48:24;;;;;;;50.40;43.78;;;16.80;83.30;;;;;;5034056;28;20045;-65
2023/09/17 07:51:00;;;;;;;48.95;42.92;;;16.90;83.20;;;;;;5040801;28;20116;-65
2023/09/17 07:53:26;;;;;;;52.03;43.38;;;17.00;83.20;;;;;;5035700;28;20423;-65
2023/09/17 07:55:52;;;;;;;49.70;43.25;;;17.00;83.00;;;;;;5038719;28;20072;-65
2023/09/17 07:58:18;;;;;;;53.72;45.13;;;17.00;83.00;;;;;;5027850;28;20045;-64
2023/09/17 08:00:48;;;;;;;50.92;43.20;;;17.00;82.80;;;;;;5042305;28;20047;-66
2023/09/17 08:03:15;;;;;;;48.63;41.80;;;17.00;82.60;;;;;;5039968;28;20049;-64
2023/09/17 08:05:44;;;;;;;51.80;45.55;;;17.10;82.60;;;;;;5043656;28;20546;-65
2023/09/17 08:08:09;;;;;;;50.08;42.92;;;17.20;82.60;;;;;;5029940;28;20063;-65
2023/09/17 08:10:37;;;;;;;52.55;41.92;;;17.20;82.50;;;;;;5036377;28;20104;-65
2023/09/17 08:13:03;;;;;;;48.50;43.25;;;17.20;82.40;;;;;;5043773;28;20399;-65
2023/09/17 08:15:29;;;;;;;50.42;42.13;;;17.20;82.30;;;;;;5044204;28;20171;-66
2023/09/17 08:17:58;;;;;;;48.67;42.03;;;17.20;82.20;;;;;;5032879;28;20040;-65
2023/09/17 08:20:24;;;;;;;49.30;41.63;;;17.20;82.20;;;;;;5043084;28;20044;-65
2023/09/17 08:22:54;;;;;;;46.92;41.90;;;17.20;82.10;;;;;;5044175;28;20197;-65
2023/09/17 08:25:20;;;;;;;47.72;40.00;;;17.30;82.10;;;;;;5023218;28;20564;-65
2023/09/17 08:27:47;;;;;;;45.47;40.42;;;17.30;82.00;;;;;;5031010;28;20040;-66
2023/09/17 08:30:13;;;;;;;44.45;38.88;;;17.40;81.90;;;;;;5041398;28;20602;-65
2023/09/17 08:32:44;;;;;;;47.38;39.05;;;17.40;81.90;;;;;;5022976;28;20045;-65
2023/09/17 08:35:15;;;;;;;50.28;40.70;;;17.40;81.70;;;;;;5041197;28;20045;-65
2023/09/17 08:37:43;;;;;;;46.60;38.50;;;17.40;81.70;;;;;;5029609;28;20041;-65
2023/09/17 08:40:14;;;;;;;49.10;41.38;;;17.40;81.60;;;;;;5041726;28;20251;-65
2023/09/17 08:42:41;;;;;;;53.45;43.03;;;17.40;81.60;;;;;;5025835;28;20434;-64
2023/09/17 08:45:09;;;;;;;51.08;42.38;;;17.40;81.50;;;;;;5042602;28;20052;-65
2023/09/17 08:47:35;;;;;;;50.15;41.97;;;17.40;81.60;;;;;;5030670;28;20053;-64
2023/09/17 08:50:01;;;;;;;48.60;41.33;;;17.40;81.50;;;;;;5041723;28;20044;-65
2023/09/17 08:52:31;;;;;;;47.80;42.17;;;17.40;81.60;;;;;;5040266;28;20051;-64
2023/09/17 08:54:58;;;;;;;44.35;39.30;;;17.40;81.60;;;;;;5041412;28;20033;-65
2023/09/17 08:57:26;;;;;;;42.80;35.65;;;17.40;81.20;;;;;;5032421;28;20151;-65
2023/09/17 09:00:07;;;;;;;41.55;35.97;;;17.40;81.10;;;;;;5041598;28;20056;-65
2023/09/17 09:02:54;;;;;;;43.22;34.90;;;17.40;81.00;;;;;;5041686;28;20045;-64
2023/09/17 09:05:25;;;;;;;40.10;35.50;;;17.40;80.80;;;;;;5043780;28;20049;-66
2023/09/17 09:07:52;;;;;;;36.05;30.80;;;17.50;80.80;;;;;;5031022;28;20090;-65
2023/09/17 09:10:18;;;;;;;35.75;30.98;;;17.50;80.50;;;;;;5039481;28;20082;-64
2023/09/17 09:12:45;;;;;;;33.90;28.65;;;17.50;80.40;;;;;;5035234;28;20041;-65
2023/09/17 09:15:11;;;;;;;31.45;28.05;;;17.50;80.20;;;;;;5040212;28;20048;-64
2023/09/17 09:17:40;;;;;;;30.17;24.77;;;17.50;79.90;;;;;;5027276;28;20037;-64
2023/09/17 09:20:10;;;;;;;25.15;22.42;;;17.40;79.60;;;;;;5039213;28;20102;-64
2023/09/17 09:22:37;;;;;;;28.45;22.92;;;17.50;79.30;;;;;;5038019;28;20442;-64
2023/09/17 09:25:06;;;;;;;25.85;22.00;;;17.40;79.20;;;;;;5042978;28;20554;-65
2023/09/17 09:27:32;;;;;;;27.80;24.48;;;17.50;79.00;;;;;;5012039;28;20071;-64
2023/09/17 09:29:58;;;;;;;26.60;23.10;;;17.50;79.10;;;;;;5037820;28;20531;-65
2023/09/17 09:32:23;;;;;;;21.17;17.55;;;17.50;79.10;;;;;;5042451;28;20043;-64
2023/09/17 09:34:51;;;;;;;20.10;16.25;;;17.60;78.50;;;;;;5043054;28;20041;-65
2023/09/17 09:37:21;;;;;;;18.95;15.85;;;17.70;78.30;;;;;;5032877;28;20071;-64
2023/09/17 09:39:47;;;;;;;19.60;17.02;;;17.70;77.90;;;;;;5044928;28;20037;-65
2023/09/17 09:42:14;;;;;;;19.98;17.80;;;17.80;77.60;;;;;;5042168;28;20564;-64
2023/09/17 09:44:40;;;;;;;23.38;18.35;;;17.80;77.60;;;;;;5044355;28;20126;-64
2023/09/17 09:47:06;;;;;;;23.40;19.48;;;17.80;77.50;;;;;;5035473;28;20132;-65
2023/09/17 09:49:42;;;;;;;22.60;18.90;;;17.80;77.60;;;;;;5045814;28;20072;-65
2023/09/17 09:52:10;;;;;;;23.17;19.38;;;17.80;77.50;;;;;;5045700;28;20045;-65
2023/09/17 09:54:35;;;;;;;21.85;19.45;;;17.80;77.70;;;;;;5044918;28;20048;-64
2023/09/17 09:57:05;;;;;;;23.65;20.05;;;17.80;77.70;;;;;;5030840;28;20048;-64
2023/09/17 09:59:36;;;;;;;19.77;16.75;;;17.80;77.80;;;;;;5041989;28;20539;-64
2023/09/17 10:02:05;;;;;;;18.95;15.88;;;17.70;77.70;;;;;;5041418;28;20045;-65
2023/09/17 10:04:31;;;;;;;21.58;15.70;;;17.70;77.50;;;;;;5043004;28;20464;-64
2023/09/17 10:06:57;;;;;;;19.33;14.65;;;17.60;77.20;;;;;;5035558;28;21366;-66
2023/09/17 10:09:25;;;;;;;16.35;14.63;;;17.60;77.10;;;;;;5040982;28;20160;-64
2023/09/17 10:11:53;;;;;;;16.60;14.35;;;17.50;77.00;;;;;;5045311;28;20056;-64
2023/09/17 10:14:21;;;;;;;16.33;13.45;;;17.50;76.90;;;;;;5042235;28;20151;-64
2023/09/17 10:16:49;;;;;;;17.33;13.90;;;17.50;76.80;;;;;;5036302;28;20140;-64
2023/09/17 10:19:20;;;;;;;15.65;13.80;;;17.50;76.80;;;;;;5046597;28;20053;-65
2023/09/17 10:21:48;;;;;;;18.63;14.35;;;17.50;77.00;;;;;;5027340;28;20041;-65
2023/09/17 10:24:18;;;;;;;16.85;14.07;;;17.50;77.00;;;;;;5050376;28;20045;-65
2023/09/17 10:26:45;;;;;;;16.77;13.45;;;17.50;77.00;;;;;;5038585;28;20044;-65
2023/09/17 10:29:13;;;;;;;15.88;13.88;;;17.50;77.10;;;;;;5011422;28;20045;-64
2023/09/17 10:31:41;;;;;;;16.60;14.80;;;17.50;77.30;;;;;;5053161;28;20074;-65
2023/09/17 10:34:09;;;;;;;22.77;16.00;;;17.50;77.40;;;;;;5044902;28;20040;-65
2023/09/17 10:36:38;;;;;;;18.52;15.93;;;17.50;77.50;;;;;;5038379;28;20446;-65
2023/09/17 10:39:07;;;;;;;18.65;16.65;;;17.50;77.60;;;;;;5053169;28;20105;-65
2023/09/17 10:41:36;;;;;;;19.58;17.15;;;17.50;77.70;;;;;;5043165;28;20067;-64
2023/09/17 10:44:03;;;;;;;24.33;17.85;;;17.60;77.80;;;;;;5049241;28;20510;-65
2023/09/17 10:46:31;;;;;;;22.50;19.23;;;17.60;78.00;;;;;;5039006;28;20556;-64
2023/09/17 10:48:58;;;;;;;21.70;19.38;;;17.60;78.30;;;;;;5048982;28;20489;-65
2023/09/17 10:51:26;;;;;;;22.25;19.92;;;17.60;78.30;;;;;;5034313;28;20120;-65
2023/09/17 10:53:52;;;;;;;22.63;20.17;;;17.70;78.40;;;;;;5044562;28;20053;-65
2023/09/17 10:56:19;;;;;;;21.75;19.45;;;17.80;78.70;;;;;;5038843;28;20556;-66
2023/09/17 10:58:52;;;;;;;22.13;18.92;;;17.80;78.80;;;;;;5038616;28;20257;-64
2023/09/17 11:01:32;;;;;;;21.20;18.83;;;17.80;78.90;;;;;;5045770;28;20214;-65
2023/09/17 11:04:28;;;;;;;21.17;18.90;;;17.90;78.70;;;;;;5049542;28;20045;-65
2023/09/17 11:06:54;;;;;;;21.60;19.08;;;17.90;78.70;;;;;;5025503;28;20045;-64
2023/09/17 11:09:20;;;;;;;21.00;18.75;;;18.00;78.70;;;;;;5048643;28;20059;-66
2023/09/17 11:11:46;;;;;;;23.02;20.60;;;18.00;78.70;;;;;;5038217;28;20045;-65
2023/09/17 11:14:14;;;;;;;25.15;20.40;;;18.00;78.80;;;;;;5028056;28;20055;-66
2023/09/17 11:16:40;;;;;;;25.77;20.67;;;18.00;78.80;;;;;;5028309;28;20087;-66
2023/09/17 11:19:15;;;;;;;24.77;20.42;;;18.00;78.90;;;;;;5048471;28;20090;-64
2023/09/17 11:21:43;;;;;;;23.48;20.10;;;18.00;78.90;;;;;;5048421;28;20087;-65
2023/09/17 11:24:13;;;;;;;22.42;19.48;;;18.00;78.90;;;;;;5048824;28;20045;-66
2023/09/17 11:26:41;;;;;;;23.60;21.00;;;18.00;79.00;;;;;;5037096;28;20462;-66
2023/09/17 11:29:08;;;;;;;23.15;20.75;;;18.00;79.10;;;;;;5048078;28;20063;-65
2023/09/17 11:31:38;;;;;;;24.83;20.23;;;18.00;79.20;;;;;;5048551;28;20083;-65
2023/09/17 11:34:09;;;;;;;23.37;20.40;;;18.00;79.20;;;;;;5045661;28;20120;-64
2023/09/17 11:36:35;;;;;;;22.88;20.40;;;18.00;79.30;;;;;;5037852;28;20290;-66
2023/09/17 11:39:05;;;;;;;24.40;21.73;;;18.00;79.40;;;;;;5048410;28;20160;-64
2023/09/17 11:41:33;;;;;;;22.17;19.75;;;18.00;79.50;;;;;;5031200;28;20044;-65
2023/09/17 11:43:59;;;;;;;21.95;19.50;;;18.00;79.50;;;;;;5048326;28;20316;-65
2023/09/17 11:46:25;;;;;;;23.58;20.98;;;18.00;79.30;;;;;;5037902;28;20992;-64
2023/09/17 11:48:51;;;;;;;22.45;19.85;;;18.00;79.40;;;;;;5047965;28;20049;-65
2023/09/17 11:51:19;;;;;;;22.23;19.83;;;18.10;79.60;;;;;;5033594;28;20103;-65
2023/09/17 11:54:00;;;;;;;22.52;19.67;;;18.20;79.60;;;;;;5042699;28;20136;-65
2023/09/17 11:56:32;;;;;;;22.98;20.52;;;18.20;79.30;;;;;;5035860;28;20479;-66
2023/09/17 11:59:02;;;;;;;21.00;18.77;;;18.20;79.40;;;;;;5035897;28;20049;-65
2023/09/17 12:01:30;;;;;;;20.48;18.33;;;18.20;79.10;;;;;;5045966;28;20040;-65
2023/09/17 12:03:57;;;;;;;21.27;18.90;;;18.20;79.10;;;;;;5047377;28;20232;-64
2023/09/17 12:06:25;;;;;;;21.98;19.30;;;18.20;79.00;;;;;;5023977;28;20111;-66
2023/09/17 12:08:51;;;;;;;23.48;19.70;;;18.10;79.00;;;;;;5047854;28;20077;-65
2023/09/17 12:11:23;;;;;;;22.38;19.95;;;18.10;79.00;;;;;;5041029;28;20048;-66
2023/09/17 12:13:53;;;;;;;26.88;22.45;;;18.10;79.20;;;;;;5027156;28;20133;-66
2023/09/17 12:16:25;;;;;;;29.60;25.05;;;18.10;79.40;;;;;;5017085;28;20044;-65
2023/09/17 12:18:52;;;;;;;29.27;25.73;;;18.10;79.70;;;;;;5027392;28;20052;-65
2023/09/17 12:21:20;;;;;;;29.92;26.63;;;18.10;79.80;;;;;;5027537;28;20041;-65
2023/09/17 12:23:56;;;;;;;30.80;27.60;;;18.20;80.00;;;;;;5029949;28;20076;-65
2023/09/17 12:26:37;;;;;;;29.70;26.40;;;18.20;80.10;;;;;;5036457;28;20414;-66
2023/09/17 12:29:10;;;;;;;;;;;18.20;80.10;;;;;;5046909;28;20061;-64